aviador You're here:

YMTG Decoded Metar

in
Report Time2018-01-21 18:00:00
UTC Time2018-01-21 18:30:21
Flight Rules mvfr MVFR
Wind170° at 05 kt
W.Decomp.*RWY 18: 4.9 kt HW 0.9 kt LCW
RWY 11: 2.5 kt HW 4.3 kt RCW
RWY 24: 1.7 kt HW 4.7 kt LCW
W.Rank170° ranks 3
Current wind is below 170° avg. (9.3)
Visibility9999 m
Phenomena:N/A
Clouds:Overcast 012 Hf
Expected CloudBase > 400 ft AGL from Temp-Dew spread
Ceiling1,200 ft
Temp15°C
Dew Point14°C (94% RH)
AAT14.5°C
QNH1008 hPa
Raw Report
METAR YMTG 211800Z AUTO 17005KT 9999 // OVC012 15/14 Q1008=

Extra information for YMTG:More info

Social comments